createdAt,value
2022-10-18T00:01:09.311Z,15.60
2022-10-18T00:06:15.119Z,15.35
2022-10-18T00:08:42.637Z,10.18
2022-10-18T00:11:10.451Z,8.38
2022-10-18T00:13:38.690Z,8.95
2022-10-18T00:16:13.657Z,11.13
2022-10-18T00:18:42.120Z,16.42
2022-10-18T00:21:14.703Z,6.55
2022-10-18T00:23:42.610Z,10.80
2022-10-18T00:26:20.467Z,6.63
2022-10-18T00:28:53.183Z,14.43
2022-10-18T00:31:29.432Z,7.97
2022-10-18T00:34:11.178Z,7.40
2022-10-18T00:36:39.469Z,10.18
2022-10-18T00:39:09.466Z,8.52
2022-10-18T00:41:38.218Z,10.57
2022-10-18T00:44:14.349Z,11.90
2022-10-18T00:47:20.721Z,6.55
2022-10-18T00:49:56.842Z,12.73
2022-10-18T00:52:38.398Z,10.23
2022-10-18T00:55:07.856Z,9.82
2022-10-18T00:57:36.687Z,6.85
2022-10-18T01:00:09.878Z,6.38
2022-10-18T01:02:40.078Z,7.68
2022-10-18T01:05:08.720Z,10.35
2022-10-18T01:08:22.065Z,11.40
2022-10-18T01:11:21.917Z,6.13
2022-10-18T01:14:23.452Z,6.72
2022-10-18T01:16:54.172Z,11.45
2022-10-18T01:19:58.659Z,10.35
2022-10-18T01:22:42.301Z,10.00
2022-10-18T01:25:51.229Z,8.68
2022-10-18T01:29:16.774Z,12.15
2022-10-18T01:32:10.469Z,6.30
2022-10-18T01:34:40.548Z,14.05
2022-10-18T01:37:14.387Z,9.20
2022-10-18T01:39:46.726Z,10.90
2022-10-18T01:42:19.711Z,10.93
2022-10-18T01:44:50.696Z,11.57
2022-10-18T01:47:19.698Z,12.85
2022-10-18T01:49:47.425Z,9.70
2022-10-18T01:52:16.775Z,14.00
2022-10-18T01:54:49.240Z,7.57
2022-10-18T01:57:45.860Z,9.15
2022-10-18T02:00:30.247Z,10.60
2022-10-18T02:03:30.060Z,11.57
2022-10-18T02:06:28.964Z,8.60
2022-10-18T02:09:29.060Z,10.18
2022-10-18T02:11:58.399Z,15.73
2022-10-18T02:14:26.869Z,13.30
2022-10-18T02:17:00.128Z,12.18
2022-10-18T02:19:40.528Z,10.75
2022-10-18T02:22:10.878Z,10.93
2022-10-18T02:24:44.853Z,9.88
2022-10-18T02:27:13.260Z,9.65
2022-10-18T02:29:42.725Z,7.28
2022-10-18T02:32:41.114Z,14.65
2022-10-18T02:35:19.410Z,9.02
2022-10-18T02:37:50.220Z,8.00
2022-10-18T02:40:18.289Z,7.68
2022-10-18T02:42:51.355Z,12.98
2022-10-18T02:45:19.089Z,9.38
2022-10-18T02:47:47.168Z,5.43
2022-10-18T02:50:15.213Z,6.22
2022-10-18T02:52:42.937Z,8.60
2022-10-18T02:55:11.059Z,6.80
2022-10-18T02:57:38.797Z,9.07
2022-10-18T03:00:07.141Z,8.80
2022-10-18T03:02:35.250Z,16.45
2022-10-18T03:05:02.707Z,11.70
2022-10-18T03:07:30.826Z,11.82
2022-10-18T03:09:58.569Z,10.50
2022-10-18T03:12:26.407Z,6.43
2022-10-18T03:14:53.853Z,7.53
2022-10-18T03:17:21.693Z,7.60
2022-10-18T03:19:49.126Z,8.82
2022-10-18T03:22:16.874Z,8.75
2022-10-18T03:24:45.591Z,10.57
2022-10-18T03:27:13.366Z,12.93
2022-10-18T03:29:40.827Z,13.23
2022-10-18T03:32:08.703Z,9.80
2022-10-18T03:34:36.768Z,8.02
2022-10-18T03:37:05.600Z,10.40
2022-10-18T03:39:33.269Z,8.90
2022-10-18T03:42:00.949Z,14.13
2022-10-18T03:44:28.561Z,14.90
2022-10-18T03:46:56.228Z,14.15
2022-10-18T03:49:23.780Z,11.07
2022-10-18T03:51:51.518Z,9.93
2022-10-18T03:54:19.097Z,6.65
2022-10-18T03:56:46.945Z,11.63
2022-10-18T03:59:16.791Z,10.57
2022-10-18T04:01:44.557Z,9.52
2022-10-18T04:04:12.024Z,10.68
2022-10-18T04:06:39.829Z,6.63
2022-10-18T04:09:10.111Z,13.38
2022-10-18T04:11:38.379Z,8.82
2022-10-18T04:14:05.931Z,14.40
2022-10-18T04:16:33.844Z,10.68
2022-10-18T04:19:01.252Z,11.73
2022-10-18T04:21:28.962Z,7.78
2022-10-18T04:23:56.400Z,12.88
2022-10-18T04:26:24.207Z,10.75
2022-10-18T04:28:51.818Z,13.95
2022-10-18T04:31:19.595Z,12.93
2022-10-18T04:33:47.037Z,7.47
2022-10-18T04:36:15.022Z,10.93
2022-10-18T04:38:42.976Z,12.68
2022-10-18T04:41:11.108Z,20.70
2022-10-18T04:43:38.646Z,13.40
2022-10-18T04:46:06.598Z,16.17
2022-10-18T04:48:34.187Z,10.50
2022-10-18T04:51:01.924Z,15.75
2022-10-18T04:53:29.383Z,12.15
2022-10-18T04:55:57.262Z,12.88
2022-10-18T04:58:24.837Z,8.75
2022-10-18T05:00:52.728Z,13.63
2022-10-18T05:03:20.297Z,10.32
2022-10-18T05:06:01.704Z,14.65
2022-10-18T05:08:31.009Z,16.52
2022-10-18T05:10:59.196Z,13.73
2022-10-18T05:13:27.089Z,8.07
2022-10-18T05:15:54.866Z,11.23
2022-10-18T05:18:22.351Z,12.23
2022-10-18T05:20:50.033Z,15.52
2022-10-18T05:23:17.528Z,21.13
2022-10-18T05:25:45.306Z,16.25
2022-10-18T05:28:34.058Z,18.48
2022-10-18T05:31:05.977Z,16.80
2022-10-18T05:33:34.026Z,29.60
2022-10-18T05:36:02.114Z,15.10
2022-10-18T05:38:32.845Z,34.33
2022-10-18T05:41:04.556Z,29.27
2022-10-18T05:43:32.035Z,36.47
2022-10-18T05:46:00.033Z,30.58
2022-10-18T05:48:27.442Z,28.70
2022-10-18T05:50:59.541Z,26.92
2022-10-18T05:53:37.112Z,24.33
2022-10-18T05:56:07.291Z,27.67
2022-10-18T05:58:35.372Z,15.35
2022-10-18T06:01:05.372Z,19.83
2022-10-18T06:03:33.464Z,19.50
2022-10-18T06:06:10.802Z,20.63
2022-10-18T06:08:40.865Z,15.25
2022-10-18T06:11:14.957Z,14.82
2022-10-18T06:13:47.919Z,15.00
2022-10-18T06:16:19.320Z,15.20
2022-10-18T06:18:53.198Z,14.25
2022-10-18T06:21:22.552Z,15.02
2022-10-18T06:23:56.198Z,11.40
2022-10-18T06:26:25.705Z,6.40
2022-10-18T06:28:53.312Z,10.57
2022-10-18T06:31:21.408Z,10.75
2022-10-18T06:33:49.348Z,6.97
2022-10-18T06:36:22.087Z,4.75
2022-10-18T06:38:50.229Z,16.25
2022-10-18T06:41:19.361Z,7.75
2022-10-18T06:43:51.303Z,7.63
2022-10-18T06:46:19.422Z,18.38
2022-10-18T06:48:47.152Z,8.35
2022-10-18T06:51:15.429Z,10.43
2022-10-18T06:53:44.599Z,10.25
2022-10-18T06:56:21.240Z,17.20
2022-10-18T06:58:48.964Z,11.15
2022-10-18T07:01:18.740Z,10.30
2022-10-18T07:03:48.380Z,13.63
2022-10-18T07:06:18.766Z,5.28
2022-10-18T07:08:48.278Z,9.52
2022-10-18T07:11:19.889Z,8.35
2022-10-18T07:13:47.418Z,6.60
2022-10-18T07:16:18.631Z,6.07
2022-10-18T07:18:50.363Z,7.25
2022-10-18T07:21:24.697Z,7.25
2022-10-18T07:23:52.843Z,10.10
2022-10-18T07:26:30.210Z,4.82
2022-10-18T07:29:11.651Z,11.30
2022-10-18T07:31:40.947Z,6.53
2022-10-18T07:34:11.915Z,6.85
2022-10-18T07:36:40.557Z,13.27
2022-10-18T07:39:09.373Z,8.00
2022-10-18T07:41:37.269Z,7.70
2022-10-18T07:44:05.372Z,4.18
2022-10-18T07:46:33.383Z,8.40
2022-10-18T07:49:00.913Z,10.80
2022-10-18T07:51:30.917Z,4.03
2022-10-18T07:53:59.360Z,5.43
2022-10-18T07:56:27.096Z,6.43
2022-10-18T07:58:56.637Z,7.00
2022-10-18T08:01:25.986Z,6.65
2022-10-18T08:06:23.385Z,5.55
2022-10-18T08:08:50.972Z,7.15
2022-10-18T08:11:25.038Z,8.73
2022-10-18T08:13:53.975Z,4.35
2022-10-18T08:16:40.031Z,5.55
2022-10-18T08:19:07.599Z,4.10
2022-10-18T08:21:35.334Z,6.90
2022-10-18T08:24:02.815Z,7.05
2022-10-18T08:26:30.547Z,5.63
2022-10-18T08:29:10.634Z,6.15
2022-10-18T08:31:45.630Z,6.47
2022-10-18T08:34:18.641Z,4.53
2022-10-18T08:36:47.480Z,10.52
2022-10-18T08:39:14.902Z,3.72
2022-10-18T08:42:17.675Z,7.93
2022-10-18T08:44:49.470Z,4.85
2022-10-18T08:47:31.327Z,6.03
2022-10-18T08:50:14.306Z,8.98
2022-10-18T08:53:04.794Z,3.10
2022-10-18T08:55:38.865Z,3.42
2022-10-18T08:58:26.690Z,4.38
2022-10-18T09:01:12.658Z,7.82
2022-10-18T09:04:27.976Z,6.10
2022-10-18T09:07:20.072Z,9.35
2022-10-18T09:10:07.160Z,7.70
2022-10-18T09:12:58.769Z,4.85
2022-10-18T09:15:45.061Z,8.15
2022-10-18T09:18:55.476Z,8.30
2022-10-18T09:21:55.328Z,2.80
2022-10-18T09:24:39.648Z,6.57
2022-10-18T09:27:20.243Z,10.68
2022-10-18T09:30:07.809Z,5.75
2022-10-18T09:33:14.276Z,4.72
2022-10-18T09:36:03.296Z,8.85
2022-10-18T09:38:49.609Z,4.63
2022-10-18T09:41:42.862Z,12.23
2022-10-18T09:44:22.222Z,4.57
2022-10-18T09:47:16.557Z,3.17
2022-10-18T09:49:51.056Z,3.40
2022-10-18T09:52:38.846Z,3.50
2022-10-18T09:55:16.897Z,5.18
2022-10-18T09:57:54.089Z,6.53
2022-10-18T10:00:31.461Z,3.90
2022-10-18T10:03:02.002Z,3.17
2022-10-18T10:05:29.771Z,9.85
2022-10-18T10:08:02.244Z,4.43
2022-10-18T10:10:31.839Z,6.80
2022-10-18T10:13:16.868Z,4.25
2022-10-18T10:15:56.358Z,3.75
2022-10-18T10:21:15.817Z,6.03
2022-10-18T10:23:47.448Z,8.82
2022-10-18T10:26:29.436Z,6.07
2022-10-18T10:28:57.332Z,3.60
2022-10-18T10:31:24.971Z,3.50
2022-10-18T10:34:14.499Z,4.63
2022-10-18T10:36:52.241Z,2.50
2022-10-18T10:39:22.749Z,4.40
2022-10-18T10:41:56.994Z,3.22
2022-10-18T10:44:36.228Z,2.22
2022-10-18T10:47:04.831Z,13.40
2022-10-18T10:49:47.687Z,2.25
2022-10-18T10:52:28.326Z,10.35
2022-10-18T11:00:44.341Z,1.42
2022-10-18T11:03:33.805Z,7.82
2022-10-18T11:08:41.131Z,9.15
2022-10-18T11:11:26.781Z,1.77
2022-10-18T11:14:26.207Z,8.93
2022-10-18T11:17:21.988Z,5.82
2022-10-18T11:20:09.753Z,3.33
2022-10-18T11:22:56.890Z,6.15
2022-10-18T11:25:43.131Z,5.47
2022-10-18T11:28:40.920Z,2.80
2022-10-18T11:31:50.501Z,3.33
2022-10-18T11:34:25.631Z,4.32
2022-10-18T11:37:47.285Z,6.28
2022-10-18T11:40:45.161Z,3.53
2022-10-18T11:43:30.124Z,6.72
2022-10-18T11:49:16.673Z,9.38
2022-10-18T11:52:13.843Z,7.38
2022-10-18T11:54:57.187Z,3.88
2022-10-18T11:57:55.643Z,2.42
2022-10-18T12:00:40.505Z,7.72
2022-10-18T12:03:38.929Z,5.75
2022-10-18T12:06:34.062Z,5.88
2022-10-18T12:09:37.010Z,2.58
2022-10-18T12:12:28.325Z,3.95
2022-10-18T12:15:22.825Z,4.47
2022-10-18T12:18:03.464Z,3.50
2022-10-18T12:20:50.201Z,2.35
2022-10-18T12:23:29.647Z,5.28
2022-10-18T12:26:03.898Z,4.28
2022-10-18T12:29:00.632Z,3.35
2022-10-18T12:32:08.841Z,5.20
2022-10-18T12:34:48.304Z,2.05
2022-10-18T12:37:36.610Z,2.10
2022-10-18T12:40:46.606Z,4.00
2022-10-18T12:43:37.685Z,2.33
2022-10-18T12:46:13.567Z,7.53
2022-10-18T12:48:45.750Z,5.68
2022-10-18T12:51:26.801Z,8.07
2022-10-18T12:54:02.953Z,3.13
2022-10-18T12:56:34.199Z,7.72
2022-10-18T12:59:16.259Z,3.90
2022-10-18T13:01:53.313Z,8.15
2022-10-18T13:04:32.422Z,3.70
2022-10-18T13:07:00.041Z,2.10
2022-10-18T13:09:36.964Z,3.47
2022-10-18T13:12:10.627Z,2.60
2022-10-18T13:15:20.540Z,2.22
2022-10-18T13:17:57.452Z,5.80
2022-10-18T13:21:17.805Z,5.47
2022-10-18T13:24:26.227Z,3.30
2022-10-18T13:27:34.847Z,8.68
2022-10-18T13:30:30.054Z,2.95
2022-10-18T13:33:35.154Z,3.28
2022-10-18T13:36:23.596Z,3.95
2022-10-18T13:38:55.545Z,3.88
2022-10-18T13:41:28.342Z,2.20
2022-10-18T13:44:30.510Z,6.93
2022-10-18T13:46:58.271Z,1.48
2022-10-18T13:50:08.152Z,7.55
2022-10-18T13:53:16.175Z,1.60
2022-10-18T13:56:22.021Z,3.95
2022-10-18T13:59:15.125Z,5.57
2022-10-18T14:02:30.701Z,6.63
2022-10-18T14:05:29.391Z,6.85
2022-10-18T14:08:12.844Z,2.30
2022-10-18T14:11:11.133Z,7.05
2022-10-18T14:13:56.419Z,6.30
2022-10-18T14:16:55.006Z,8.68
2022-10-18T14:19:47.908Z,2.70
2022-10-18T14:22:26.973Z,2.00
2022-10-18T14:24:57.969Z,5.78
2022-10-18T14:27:29.262Z,3.53
2022-10-18T14:30:20.585Z,11.20
2022-10-18T14:32:56.399Z,4.43
2022-10-18T14:35:33.221Z,6.22
2022-10-18T14:38:02.576Z,4.97
2022-10-18T14:43:15.873Z,17.73
2022-10-18T14:45:43.749Z,12.75
2022-10-18T14:48:17.123Z,6.78
2022-10-18T14:50:59.183Z,5.63
2022-10-18T14:53:40.186Z,7.38
2022-10-18T14:56:19.641Z,8.38
2022-10-18T14:58:47.573Z,7.82
2022-10-18T15:01:20.275Z,9.85
2022-10-18T15:03:49.165Z,15.90
2022-10-18T15:06:20.628Z,16.88
2022-10-18T15:08:56.353Z,13.32
2022-10-18T15:11:25.917Z,7.13
2022-10-18T15:14:06.896Z,15.65
2022-10-18T15:16:38.404Z,10.77
2022-10-18T15:19:28.483Z,6.45
2022-10-18T15:22:30.892Z,15.82
2022-10-18T15:25:32.083Z,13.93
2022-10-18T15:28:01.416Z,15.32
2022-10-18T15:30:36.315Z,14.48
2022-10-18T15:33:10.124Z,10.02
2022-10-18T15:35:41.244Z,18.65
2022-10-18T15:38:25.209Z,11.00
2022-10-18T15:40:54.217Z,20.95
2022-10-18T15:43:24.619Z,15.82
2022-10-18T15:45:55.007Z,25.70
2022-10-18T15:48:40.232Z,22.17
2022-10-18T15:51:49.917Z,21.23
2022-10-18T15:54:29.591Z,12.57
2022-10-18T15:56:57.522Z,17.88
2022-10-18T15:59:32.162Z,29.02
2022-10-18T16:01:59.932Z,17.38
2022-10-18T16:04:32.521Z,17.60
2022-10-18T16:07:00.805Z,13.95
2022-10-18T16:09:29.364Z,17.38
2022-10-18T16:11:58.296Z,13.65
2022-10-18T16:14:26.922Z,10.38
2022-10-18T16:17:03.032Z,17.30
2022-10-18T16:19:32.247Z,15.10
2022-10-18T16:22:06.137Z,15.63
2022-10-18T16:24:34.072Z,13.05
2022-10-18T16:27:01.782Z,11.02
2022-10-18T16:29:32.127Z,29.17
2022-10-18T16:32:01.208Z,21.45
2022-10-18T16:34:32.140Z,26.98
2022-10-18T16:36:59.950Z,22.10
2022-10-18T16:39:28.501Z,16.77
2022-10-18T16:41:56.389Z,21.70
2022-10-18T16:44:23.858Z,39.75
2022-10-18T16:46:53.991Z,25.52
2022-10-18T16:49:26.756Z,23.48
2022-10-18T16:51:55.164Z,19.13
2022-10-18T16:54:23.608Z,12.52
2022-10-18T16:56:51.373Z,15.82
2022-10-18T16:59:29.160Z,16.98
2022-10-18T17:01:57.491Z,27.17
2022-10-18T17:04:25.248Z,12.88
2022-10-18T17:06:57.359Z,19.40
2022-10-18T17:09:25.666Z,15.27
2022-10-18T17:11:53.660Z,16.00
2022-10-18T17:14:21.212Z,8.00
2022-10-18T17:16:53.080Z,12.82
2022-10-18T17:19:23.549Z,16.88
2022-10-18T17:21:51.330Z,13.48
2022-10-18T17:24:18.750Z,14.57
2022-10-18T17:26:46.505Z,13.40
2022-10-18T17:29:14.211Z,9.98
2022-10-18T17:31:42.059Z,19.45
2022-10-18T17:34:09.584Z,12.93
2022-10-18T17:36:38.710Z,14.48
2022-10-18T17:39:06.277Z,10.50
2022-10-18T17:41:34.001Z,13.48
2022-10-18T17:44:06.402Z,14.23
2022-10-18T17:46:34.254Z,20.17
2022-10-18T17:49:01.686Z,12.70
2022-10-18T17:51:29.542Z,10.25
2022-10-18T17:53:57.042Z,13.05
2022-10-18T17:56:27.120Z,14.57
2022-10-18T17:58:54.611Z,15.45
2022-10-18T18:01:23.554Z,16.40
2022-10-18T18:03:57.485Z,12.93
2022-10-18T18:06:39.079Z,17.50
2022-10-18T18:09:13.881Z,14.63
2022-10-18T18:11:44.007Z,21.45
2022-10-18T18:14:12.482Z,12.02
2022-10-18T18:16:44.143Z,11.73
2022-10-18T18:19:12.611Z,13.18
2022-10-18T18:21:42.671Z,14.57
2022-10-18T18:24:11.471Z,16.38
2022-10-18T18:26:40.718Z,26.48
2022-10-18T18:29:08.501Z,13.73
2022-10-18T18:31:40.092Z,15.30
2022-10-18T18:34:10.411Z,9.35
2022-10-18T18:36:38.425Z,10.30
2022-10-18T18:39:06.833Z,9.40
2022-10-18T18:41:35.033Z,12.70
2022-10-18T18:44:05.704Z,16.15
2022-10-18T18:46:38.639Z,12.80
2022-10-18T18:49:08.077Z,10.57
2022-10-18T18:51:40.579Z,12.27
2022-10-18T18:54:10.174Z,9.85
2022-10-18T18:56:38.684Z,18.92
2022-10-18T18:59:06.949Z,22.48
2022-10-18T19:01:37.775Z,15.00
2022-10-18T19:04:07.444Z,17.08
2022-10-18T19:06:39.760Z,18.40
2022-10-18T19:09:19.315Z,18.42
2022-10-18T19:11:50.754Z,22.17
2022-10-18T19:16:59.077Z,22.65
2022-10-18T19:19:29.665Z,18.45
2022-10-18T19:22:01.054Z,10.38
2022-10-18T19:24:30.612Z,14.40
2022-10-18T19:27:40.052Z,13.65
2022-10-18T19:30:16.042Z,18.10
2022-10-18T19:32:44.043Z,16.10
2022-10-18T19:35:11.618Z,12.98
2022-10-18T19:37:39.469Z,11.43
2022-10-18T19:40:07.837Z,14.75
2022-10-18T19:42:37.444Z,8.55
2022-10-18T19:45:05.762Z,10.27
2022-10-18T19:47:33.909Z,11.70
2022-10-18T19:50:02.097Z,7.55
2022-10-18T19:52:29.948Z,10.53
2022-10-18T19:54:57.539Z,14.38
2022-10-18T19:57:25.620Z,11.65
2022-10-18T19:59:54.382Z,14.27
2022-10-18T20:02:24.090Z,6.28
2022-10-18T20:04:51.663Z,8.75
2022-10-18T20:07:19.432Z,8.38
2022-10-18T20:09:48.057Z,12.35
2022-10-18T20:12:15.792Z,8.95
2022-10-18T20:15:02.138Z,10.75
2022-10-18T20:18:26.270Z,9.73
2022-10-18T20:21:40.160Z,11.35
2022-10-18T20:24:09.479Z,8.18
2022-10-18T20:26:37.132Z,8.07
2022-10-18T20:29:05.633Z,7.27
2022-10-18T20:31:37.219Z,9.77
2022-10-18T20:34:13.611Z,10.07
2022-10-18T20:36:43.502Z,8.65
2022-10-18T20:39:11.327Z,10.82
2022-10-18T20:41:41.414Z,11.43
2022-10-18T20:44:16.014Z,15.27
2022-10-18T20:46:44.668Z,12.23
2022-10-18T20:49:15.604Z,10.90
2022-10-18T20:51:43.559Z,12.27
2022-10-18T20:54:12.720Z,16.90
2022-10-18T20:56:40.315Z,16.50
2022-10-18T20:59:10.106Z,20.33
2022-10-18T21:01:39.276Z,7.85
2022-10-18T21:04:10.223Z,11.65
2022-10-18T21:06:44.160Z,16.40
2022-10-18T21:09:18.933Z,10.75
2022-10-18T21:11:50.324Z,13.93
2022-10-18T21:14:22.406Z,14.27
2022-10-18T21:16:52.854Z,11.63
2022-10-18T21:19:41.769Z,8.57
2022-10-18T21:22:09.892Z,16.35
2022-10-18T21:24:45.932Z,11.23
2022-10-18T21:28:33.612Z,13.63
2022-10-18T21:31:19.468Z,10.80
2022-10-18T21:33:47.682Z,14.80
2022-10-18T21:36:15.981Z,11.80
2022-10-18T21:38:46.792Z,13.80
2022-10-18T21:41:17.597Z,10.27
2022-10-18T21:43:48.706Z,7.88
2022-10-18T21:46:18.373Z,19.88
2022-10-18T21:51:19.463Z,15.55
2022-10-18T21:57:25.838Z,9.73
2022-10-18T21:59:57.777Z,8.63
2022-10-18T22:02:32.834Z,10.57
2022-10-18T22:05:18.696Z,11.25
2022-10-18T22:07:52.625Z,9.88
2022-10-18T22:10:26.009Z,10.32
2022-10-18T22:13:15.375Z,10.68
2022-10-18T22:15:50.411Z,8.75
2022-10-18T22:18:25.339Z,10.98
2022-10-18T22:21:23.392Z,8.52
2022-10-18T22:24:05.571Z,15.20
2022-10-18T22:26:39.863Z,16.48
2022-10-18T22:29:21.047Z,14.18
2022-10-18T22:32:10.597Z,12.38
2022-10-18T22:34:40.785Z,5.70
2022-10-18T22:37:08.346Z,10.48
2022-10-18T22:39:36.057Z,16.25
2022-10-18T22:42:05.582Z,16.73
2022-10-18T22:44:36.816Z,21.40
2022-10-18T22:47:07.981Z,24.33
2022-10-18T22:49:35.761Z,24.67
2022-10-18T22:52:03.258Z,15.00
2022-10-18T22:54:32.442Z,16.65
2022-10-18T22:57:05.537Z,22.75
2022-10-18T22:59:39.453Z,15.38
2022-10-18T23:02:15.065Z,16.58
2022-10-18T23:04:51.156Z,16.23
2022-10-18T23:07:27.338Z,17.48
2022-10-18T23:10:02.148Z,20.73
2022-10-18T23:12:35.973Z,12.15
2022-10-18T23:15:12.780Z,15.82
2022-10-18T23:17:48.166Z,14.23
2022-10-18T23:20:22.706Z,16.98
2022-10-18T23:22:55.648Z,14.20
2022-10-18T23:25:32.672Z,14.95
2022-10-18T23:28:09.006Z,14.02
2022-10-18T23:30:46.286Z,8.27
2022-10-18T23:33:19.440Z,16.00
2022-10-18T23:35:57.356Z,10.98
2022-10-18T23:38:35.761Z,9.07
2022-10-18T23:41:19.664Z,7.07
2022-10-18T23:43:52.663Z,9.88
2022-10-18T23:46:28.103Z,7.82
2022-10-18T23:48:59.856Z,13.70
2022-10-18T23:51:30.010Z,12.27
2022-10-18T23:53:59.760Z,8.73
2022-10-18T23:56:31.535Z,7.90
2022-10-18T23:59:00.814Z,6.97
